sensor_id;sensor_type;location;lat;lon;timestamp;pressure;altitude;pressure_sealevel;temperature;humidity
44044;BME280;29709;52.396;16.796;2023-10-08T00:02:40;101570.45;;;12.99;92.07
44044;BME280;29709;52.396;16.796;2023-10-08T00:05:53;101585.97;;;13.00;91.97
44044;BME280;29709;52.396;16.796;2023-10-08T00:09:07;101593.60;;;13.07;91.91
44044;BME280;29709;52.396;16.796;2023-10-08T00:12:21;101592.56;;;13.08;91.14
44044;BME280;29709;52.396;16.796;2023-10-08T00:15:36;101584.80;;;13.11;91.43
44044;BME280;29709;52.396;16.796;2023-10-08T00:18:50;101596.41;;;13.15;91.07
44044;BME280;29709;52.396;16.796;2023-10-08T00:22:03;101590.02;;;13.14;91.19
44044;BME280;29709;52.396;16.796;2023-10-08T00:25:22;101593.66;;;13.15;91.25
44044;BME280;29709;52.396;16.796;2023-10-08T00:28:37;101584.80;;;13.11;90.73
44044;BME280;29709;52.396;16.796;2023-10-08T00:31:52;101587.41;;;13.13;90.89
44044;BME280;29709;52.396;16.796;2023-10-08T00:35:11;101587.41;;;13.13;91.06
44044;BME280;29709;52.396;16.796;2023-10-08T00:38:26;101588.43;;;13.12;90.99
44044;BME280;29709;52.396;16.796;2023-10-08T00:41:46;101584.50;;;13.14;91.27
44044;BME280;29709;52.396;16.796;2023-10-08T00:44:59;101607.93;;;13.10;91.43
44044;BME280;29709;52.396;16.796;2023-10-08T00:48:17;101612.23;;;13.13;91.54
44044;BME280;29709;52.396;16.796;2023-10-08T00:51:30;101598.13;;;13.16;90.74
44044;BME280;29709;52.396;16.796;2023-10-08T00:54:53;101594.99;;;13.11;90.78
44044;BME280;29709;52.396;16.796;2023-10-08T00:58:19;101596.36;;;13.07;90.53
44044;BME280;29709;52.396;16.796;2023-10-08T01:01:39;101591.71;;;13.07;90.88
44044;BME280;29709;52.396;16.796;2023-10-08T01:04:53;101580.67;;;13.07;90.53
44044;BME280;29709;52.396;16.796;2023-10-08T01:08:07;101597.75;;;13.11;90.77
44044;BME280;29709;52.396;16.796;2023-10-08T01:11:22;101581.01;;;13.04;89.95
44044;BME280;29709;52.396;16.796;2023-10-08T01:14:46;101602.53;;;13.00;90.59
44044;BME280;29709;52.396;16.796;2023-10-08T01:18:05;101621.10;;;12.90;90.78
44044;BME280;29709;52.396;16.796;2023-10-08T01:21:30;101600.56;;;12.85;90.50
44044;BME280;29709;52.396;16.796;2023-10-08T01:24:52;101617.40;;;12.74;91.45
44044;BME280;29709;52.396;16.796;2023-10-08T01:28:06;101628.42;;;12.74;90.54
44044;BME280;29709;52.396;16.796;2023-10-08T01:31:28;101616.46;;;12.65;90.48
44044;BME280;29709;52.396;16.796;2023-10-08T01:34:43;101618.73;;;12.69;90.58
44044;BME280;29709;52.396;16.796;2023-10-08T01:37:59;101646.47;;;12.68;90.23
44044;BME280;29709;52.396;16.796;2023-10-08T01:41:13;101643.25;;;12.73;90.07
44044;BME280;29709;52.396;16.796;2023-10-08T01:44:32;101678.08;;;12.74;89.58
44044;BME280;29709;52.396;16.796;2023-10-08T01:47:47;101681.30;;;12.69;89.73
44044;BME280;29709;52.396;16.796;2023-10-08T01:51:05;101699.54;;;12.62;89.80
44044;BME280;29709;52.396;16.796;2023-10-08T01:54:30;101698.51;;;12.63;89.88
44044;BME280;29709;52.396;16.796;2023-10-08T01:57:49;101697.08;;;12.59;89.77
44044;BME280;29709;52.396;16.796;2023-10-08T02:01:07;101700.32;;;12.54;90.02
44044;BME280;29709;52.396;16.796;2023-10-08T02:04:25;101692.38;;;12.51;89.98
44044;BME280;29709;52.396;16.796;2023-10-08T02:07:38;101718.68;;;12.46;90.21
44044;BME280;29709;52.396;16.796;2023-10-08T02:10:52;101716.70;;;12.38;90.94
44044;BME280;29709;52.396;16.796;2023-10-08T02:14:07;101718.93;;;12.34;90.88
44044;BME280;29709;52.396;16.796;2023-10-08T02:17:21;101700.49;;;12.35;90.78
44044;BME280;29709;52.396;16.796;2023-10-08T02:20:36;101712.13;;;12.29;90.76
44044;BME280;29709;52.396;16.796;2023-10-08T02:23:49;101730.19;;;12.23;91.06
44044;BME280;29709;52.396;16.796;2023-10-08T02:27:03;101722.95;;;12.22;91.54
44044;BME280;29709;52.396;16.796;2023-10-08T02:30:16;101738.46;;;12.23;91.18
44044;BME280;29709;52.396;16.796;2023-10-08T02:33:30;101760.83;;;12.20;91.16
44044;BME280;29709;52.396;16.796;2023-10-08T02:36:45;101782.29;;;12.17;91.28
44044;BME280;29709;52.396;16.796;2023-10-08T02:39:59;101764.19;;;12.14;91.07
44044;BME280;29709;52.396;16.796;2023-10-08T02:43:13;101739.70;;;12.11;91.28
44044;BME280;29709;52.396;16.796;2023-10-08T02:46:31;101715.52;;;12.05;91.03
44044;BME280;29709;52.396;16.796;2023-10-08T02:49:46;101770.41;;;12.16;91.06
44044;BME280;29709;52.396;16.796;2023-10-08T02:53:01;101778.98;;;12.13;91.18
44044;BME280;29709;52.396;16.796;2023-10-08T02:56:25;101803.37;;;12.08;90.81
44044;BME280;29709;52.396;16.796;2023-10-08T02:59:43;101801.24;;;12.02;91.19
44044;BME280;29709;52.396;16.796;2023-10-08T03:02:58;101783.15;;;11.99;91.36
44044;BME280;29709;52.396;16.796;2023-10-08T03:06:19;101806.76;;;12.02;91.16
44044;BME280;29709;52.396;16.796;2023-10-08T03:09:32;101823.99;;;12.04;90.85
44044;BME280;29709;52.396;16.796;2023-10-08T03:12:46;101841.87;;;12.00;90.90
44044;BME280;29709;52.396;16.796;2023-10-08T03:15:59;101836.36;;;12.00;90.31
44044;BME280;29709;52.396;16.796;2023-10-08T03:19:22;101839.38;;;11.97;89.88
44044;BME280;29709;52.396;16.796;2023-10-08T03:22:35;101817.98;;;11.91;90.12
44044;BME280;29709;52.396;16.796;2023-10-08T03:25:56;101827.43;;;11.88;89.69
44044;BME280;29709;52.396;16.796;2023-10-08T03:29:22;101839.32;;;11.79;89.21
44044;BME280;29709;52.396;16.796;2023-10-08T03:32:43;101842.65;;;11.73;89.33
44044;BME280;29709;52.396;16.796;2023-10-08T03:36:09;101848.48;;;11.70;89.05
44044;BME280;29709;52.396;16.796;2023-10-08T03:39:32;101868.78;;;11.69;89.53
44044;BME280;29709;52.396;16.796;2023-10-08T03:42:57;101868.49;;;11.62;88.65
44044;BME280;29709;52.396;16.796;2023-10-08T03:46:10;101865.45;;;11.55;88.64
44044;BME280;29709;52.396;16.796;2023-10-08T03:49:30;101864.33;;;11.48;87.40
44044;BME280;29709;52.396;16.796;2023-10-08T03:52:44;101875.21;;;11.40;86.73
44044;BME280;29709;52.396;16.796;2023-10-08T03:56:05;101878.39;;;11.36;85.49
44044;BME280;29709;52.396;16.796;2023-10-08T03:59:19;101877.98;;;11.21;84.46
44044;BME280;29709;52.396;16.796;2023-10-08T04:02:45;101864.83;;;11.05;84.35
44044;BME280;29709;52.396;16.796;2023-10-08T04:06:13;101890.59;;;11.04;84.33
44044;BME280;29709;52.396;16.796;2023-10-08T04:09:34;101904.48;;;11.03;84.14
44044;BME280;29709;52.396;16.796;2023-10-08T04:12:47;101919.09;;;10.93;83.66
44044;BME280;29709;52.396;16.796;2023-10-08T04:16:05;101935.18;;;10.88;84.28
44044;BME280;29709;52.396;16.796;2023-10-08T04:19:20;101943.99;;;10.92;84.49
44044;BME280;29709;52.396;16.796;2023-10-08T04:22:39;101941.84;;;10.86;84.46
44044;BME280;29709;52.396;16.796;2023-10-08T04:25:52;101961.09;;;10.86;84.70
44044;BME280;29709;52.396;16.796;2023-10-08T04:29:10;101976.41;;;10.79;85.04
44044;BME280;29709;52.396;16.796;2023-10-08T04:32:30;101986.37;;;10.70;84.85
44044;BME280;29709;52.396;16.796;2023-10-08T04:35:45;101998.48;;;10.58;84.56
44044;BME280;29709;52.396;16.796;2023-10-08T04:39:16;102005.82;;;10.48;84.24
44044;BME280;29709;52.396;16.796;2023-10-08T04:42:34;102010.55;;;10.36;83.46
44044;BME280;29709;52.396;16.796;2023-10-08T04:45:54;102008.09;;;10.33;82.95
44044;BME280;29709;52.396;16.796;2023-10-08T04:49:09;102020.08;;;10.32;83.05
44044;BME280;29709;52.396;16.796;2023-10-08T04:52:35;102031.23;;;10.19;81.52
44044;BME280;29709;52.396;16.796;2023-10-08T04:55:59;102032.24;;;10.18;81.96
44044;BME280;29709;52.396;16.796;2023-10-08T04:59:18;102039.31;;;10.11;81.93
44044;BME280;29709;52.396;16.796;2023-10-08T05:02:35;102042.87;;;10.02;81.90
44044;BME280;29709;52.396;16.796;2023-10-08T05:06:00;102052.77;;;9.93;81.77
44044;BME280;29709;52.396;16.796;2023-10-08T05:09:21;102054.16;;;9.88;81.39
44044;BME280;29709;52.396;16.796;2023-10-08T05:12:44;102063.55;;;9.85;81.54
44044;BME280;29709;52.396;16.796;2023-10-08T05:16:12;102074.45;;;9.75;80.66
44044;BME280;29709;52.396;16.796;2023-10-08T05:19:39;102076.33;;;9.75;80.83
44044;BME280;29709;52.396;16.796;2023-10-08T05:23:12;102093.95;;;9.72;80.58
44044;BME280;29709;52.396;16.796;2023-10-08T05:26:38;102102.69;;;9.66;80.13
44044;BME280;29709;52.396;16.796;2023-10-08T05:29:57;102120.43;;;9.62;80.32
44044;BME280;29709;52.396;16.796;2023-10-08T05:33:22;102130.04;;;9.57;79.74
44044;BME280;29709;52.396;16.796;2023-10-08T05:36:46;102133.29;;;9.62;80.16
44044;BME280;29709;52.396;16.796;2023-10-08T05:40:11;102136.99;;;9.72;80.10
44044;BME280;29709;52.396;16.796;2023-10-08T05:43:37;102140.79;;;9.92;79.27
44044;BME280;29709;52.396;16.796;2023-10-08T05:47:02;102133.50;;;10.02;79.02
44044;BME280;29709;52.396;16.796;2023-10-08T05:50:28;102149.45;;;10.08;78.29
44044;BME280;29709;52.396;16.796;2023-10-08T05:53:53;102152.23;;;10.29;79.10
44044;BME280;29709;52.396;16.796;2023-10-08T05:57:09;102161.97;;;10.33;78.34
44044;BME280;29709;52.396;16.796;2023-10-08T06:00:35;102169.01;;;10.47;77.92
44044;BME280;29709;52.396;16.796;2023-10-08T06:03:59;102174.62;;;10.66;77.98
44044;BME280;29709;52.396;16.796;2023-10-08T06:07:27;102190.28;;;10.96;77.04
44044;BME280;29709;52.396;16.796;2023-10-08T06:10:53;102180.37;;;11.14;75.83
44044;BME280;29709;52.396;16.796;2023-10-08T06:14:13;102187.24;;;11.30;75.68
44044;BME280;29709;52.396;16.796;2023-10-08T06:17:29;102197.82;;;11.34;75.96
44044;BME280;29709;52.396;16.796;2023-10-08T06:20:59;102203.94;;;11.38;75.27
44044;BME280;29709;52.396;16.796;2023-10-08T06:24:13;102217.59;;;11.49;74.65
44044;BME280;29709;52.396;16.796;2023-10-08T06:27:31;102218.64;;;11.58;73.73
44044;BME280;29709;52.396;16.796;2023-10-08T06:30:49;102229.39;;;11.70;75.20
44044;BME280;29709;52.396;16.796;2023-10-08T06:34:06;102240.47;;;11.80;75.03
44044;BME280;29709;52.396;16.796;2023-10-08T06:37:21;102251.05;;;11.84;73.44
44044;BME280;29709;52.396;16.796;2023-10-08T06:40:35;102254.27;;;11.90;72.86
44044;BME280;29709;52.396;16.796;2023-10-08T06:43:55;102264.28;;;11.91;72.14
44044;BME280;29709;52.396;16.796;2023-10-08T06:47:20;102262.41;;;12.01;72.58
44044;BME280;29709;52.396;16.796;2023-10-08T06:50:35;102266.74;;;11.94;71.91
44044;BME280;29709;52.396;16.796;2023-10-08T06:53:49;102277.62;;;11.95;72.44
44044;BME280;29709;52.396;16.796;2023-10-08T06:57:02;102284.16;;;12.04;71.79
44044;BME280;29709;52.396;16.796;2023-10-08T07:00:17;102282.01;;;12.17;72.47
44044;BME280;29709;52.396;16.796;2023-10-08T07:03:40;102289.41;;;12.26;71.37
44044;BME280;29709;52.396;16.796;2023-10-08T07:06:53;102292.79;;;12.30;70.65
44044;BME280;29709;52.396;16.796;2023-10-08T07:10:07;102302.65;;;12.32;68.66
44044;BME280;29709;52.396;16.796;2023-10-08T07:16:56;102303.95;;;12.48;70.20
44044;BME280;29709;52.396;16.796;2023-10-08T07:20:13;102305.56;;;12.40;69.81
44044;BME280;29709;52.396;16.796;2023-10-08T07:23:35;102312.21;;;12.38;68.54
44044;BME280;29709;52.396;16.796;2023-10-08T07:26:49;102315.70;;;12.40;68.21
44044;BME280;29709;52.396;16.796;2023-10-08T07:30:03;102322.09;;;12.50;66.75
44044;BME280;29709;52.396;16.796;2023-10-08T07:33:23;102328.77;;;12.48;65.53
44044;BME280;29709;52.396;16.796;2023-10-08T07:36:38;102327.75;;;12.49;66.75
44044;BME280;29709;52.396;16.796;2023-10-08T07:39:51;102331.69;;;12.56;66.64
44044;BME280;29709;52.396;16.796;2023-10-08T07:43:08;102337.06;;;12.57;63.65
44044;BME280;29709;52.396;16.796;2023-10-08T07:46:22;102348.81;;;12.59;65.09
44044;BME280;29709;52.396;16.796;2023-10-08T07:49:36;102341.40;;;12.60;63.94
44044;BME280;29709;52.396;16.796;2023-10-08T07:52:51;102348.55;;;12.62;64.50
44044;BME280;29709;52.396;16.796;2023-10-08T07:56:05;102343.91;;;12.73;64.73
44044;BME280;29709;52.396;16.796;2023-10-08T07:59:23;102348.67;;;12.80;63.35
44044;BME280;29709;52.396;16.796;2023-10-08T08:02:37;102351.02;;;12.94;64.10
44044;BME280;29709;52.396;16.796;2023-10-08T08:05:51;102352.90;;;12.94;58.05
44044;BME280;29709;52.396;16.796;2023-10-08T08:09:05;102355.82;;;12.83;59.03
44044;BME280;29709;52.396;16.796;2023-10-08T08:12:29;102368.73;;;12.73;57.66
44044;BME280;29709;52.396;16.796;2023-10-08T08:15:47;102376.41;;;12.69;57.30
44044;BME280;29709;52.396;16.796;2023-10-08T08:19:05;102375.98;;;12.64;56.88
44044;BME280;29709;52.396;16.796;2023-10-08T08:22:19;102387.02;;;12.74;56.38
44044;BME280;29709;52.396;16.796;2023-10-08T08:25:41;102395.56;;;12.70;57.46
44044;BME280;29709;52.396;16.796;2023-10-08T08:29:07;102404.71;;;12.71;54.85
44044;BME280;29709;52.396;16.796;2023-10-08T08:35:57;102414.19;;;12.97;54.45
44044;BME280;29709;52.396;16.796;2023-10-08T08:39:13;102420.88;;;12.95;52.63
44044;BME280;29709;52.396;16.796;2023-10-08T08:42:38;102432.79;;;12.95;52.84
44044;BME280;29709;52.396;16.796;2023-10-08T08:46:04;102438.45;;;12.94;51.61
44044;BME280;29709;52.396;16.796;2023-10-08T08:49:26;102441.06;;;12.95;51.24
44044;BME280;29709;52.396;16.796;2023-10-08T08:52:41;102440.92;;;12.97;49.33
44044;BME280;29709;52.396;16.796;2023-10-08T08:55:55;102437.44;;;12.95;51.08
44044;BME280;29709;52.396;16.796;2023-10-08T08:59:09;102443.09;;;13.13;52.48
44044;BME280;29709;52.396;16.796;2023-10-08T09:02:28;102448.94;;;13.29;51.68
44044;BME280;29709;52.396;16.796;2023-10-08T09:05:42;102453.17;;;13.23;49.65
44044;BME280;29709;52.396;16.796;2023-10-08T09:09:04;102453.89;;;13.25;48.39
44044;BME280;29709;52.396;16.796;2023-10-08T09:12:32;102440.95;;;13.26;48.39
44044;BME280;29709;52.396;16.796;2023-10-08T09:15:47;102446.91;;;13.31;48.89
44044;BME280;29709;52.396;16.796;2023-10-08T09:19:00;102452.16;;;13.34;48.05
44044;BME280;29709;52.396;16.796;2023-10-08T09:22:14;102449.35;;;13.44;48.53
44044;BME280;29709;52.396;16.796;2023-10-08T09:25:33;102457.79;;;13.42;47.54
44044;BME280;29709;52.396;16.796;2023-10-08T09:28:47;102457.23;;;13.48;48.16
44044;BME280;29709;52.396;16.796;2023-10-08T09:32:03;102454.75;;;13.55;48.92
44044;BME280;29709;52.396;16.796;2023-10-08T09:35:19;102458.79;;;13.70;50.16
44044;BME280;29709;52.396;16.796;2023-10-08T09:38:35;102460.51;;;13.81;50.18
44044;BME280;29709;52.396;16.796;2023-10-08T09:41:50;102458.03;;;13.88;50.11
44044;BME280;29709;52.396;16.796;2023-10-08T09:45:07;102452.91;;;13.93;48.81
44044;BME280;29709;52.396;16.796;2023-10-08T09:48:22;102462.66;;;13.97;49.15
44044;BME280;29709;52.396;16.796;2023-10-08T09:51:40;102471.36;;;14.02;48.76
44044;BME280;29709;52.396;16.796;2023-10-08T09:55:02;102472.67;;;14.07;47.93
44044;BME280;29709;52.396;16.796;2023-10-08T09:58:17;102479.93;;;14.08;46.81
44044;BME280;29709;52.396;16.796;2023-10-08T10:01:31;102471.83;;;13.97;46.87
44044;BME280;29709;52.396;16.796;2023-10-08T10:04:45;102477.20;;;13.99;47.57
44044;BME280;29709;52.396;16.796;2023-10-08T10:07:59;102476.59;;;14.05;47.98
44044;BME280;29709;52.396;16.796;2023-10-08T10:11:12;102481.96;;;14.06;46.96
44044;BME280;29709;52.396;16.796;2023-10-08T10:14:26;102486.48;;;14.07;46.21
44044;BME280;29709;52.396;16.796;2023-10-08T10:17:47;102480.65;;;14.10;48.30
44044;BME280;29709;52.396;16.796;2023-10-08T10:24:33;102476.70;;;14.13;46.85
44044;BME280;29709;52.396;16.796;2023-10-08T10:31:22;102482.33;;;14.31;45.63
44044;BME280;29709;52.396;16.796;2023-10-08T10:34:39;102487.98;;;14.39;46.89
44044;BME280;29709;52.396;16.796;2023-10-08T10:37:52;102490.14;;;14.45;45.51
44044;BME280;29709;52.396;16.796;2023-10-08T10:41:08;102491.45;;;14.51;46.37
44044;BME280;29709;52.396;16.796;2023-10-08T10:44:23;102479.73;;;14.57;45.95
44044;BME280;29709;52.396;16.796;2023-10-08T10:47:36;102480.60;;;14.85;46.33
44044;BME280;29709;52.396;16.796;2023-10-08T10:50:56;102495.16;;;14.87;46.45
44044;BME280;29709;52.396;16.796;2023-10-08T10:54:25;102501.41;;;14.89;45.65
44044;BME280;29709;52.396;16.796;2023-10-08T10:57:54;102490.33;;;14.89;44.73
44044;BME280;29709;52.396;16.796;2023-10-08T11:01:28;102496.55;;;14.73;44.62
44044;BME280;29709;52.396;16.796;2023-10-08T11:04:51;102501.22;;;14.72;45.74
44044;BME280;29709;52.396;16.796;2023-10-08T11:08:08;102497.75;;;14.70;46.34
44044;BME280;29709;52.396;16.796;2023-10-08T11:11:27;102496.78;;;14.62;45.11
44044;BME280;29709;52.396;16.796;2023-10-08T11:14:43;102500.63;;;14.41;45.28
44044;BME280;29709;52.396;16.796;2023-10-08T11:17:59;102493.63;;;14.37;46.32
44044;BME280;29709;52.396;16.796;2023-10-08T11:21:12;102492.91;;;14.35;45.45
44044;BME280;29709;52.396;16.796;2023-10-08T11:24:30;102495.40;;;14.38;44.25
44044;BME280;29709;52.396;16.796;2023-10-08T11:27:46;102492.04;;;14.35;45.15
44044;BME280;29709;52.396;16.796;2023-10-08T11:31:04;102490.15;;;14.35;44.54
44044;BME280;29709;52.396;16.796;2023-10-08T11:34:22;102492.48;;;14.40;43.81
44044;BME280;29709;52.396;16.796;2023-10-08T11:37:37;102488.91;;;14.57;42.36
44044;BME280;29709;52.396;16.796;2023-10-08T11:40:56;102475.28;;;14.46;43.29
44044;BME280;29709;52.396;16.796;2023-10-08T11:44:15;102486.09;;;14.39;43.08
44044;BME280;29709;52.396;16.796;2023-10-08T11:47:32;102477.54;;;14.23;43.85
44044;BME280;29709;52.396;16.796;2023-10-08T11:50:48;102482.05;;;14.24;44.27
44044;BME280;29709;52.396;16.796;2023-10-08T11:54:04;102472.84;;;14.33;42.83
44044;BME280;29709;52.396;16.796;2023-10-08T11:57:24;102473.98;;;14.50;43.93
44044;BME280;29709;52.396;16.796;2023-10-08T12:00:39;102488.04;;;14.57;44.25
44044;BME280;29709;52.396;16.796;2023-10-08T12:03:59;102495.31;;;14.58;43.73
44044;BME280;29709;52.396;16.796;2023-10-08T12:07:12;102501.16;;;14.55;43.08
44044;BME280;29709;52.396;16.796;2023-10-08T12:10:30;102507.52;;;14.65;43.48
44044;BME280;29709;52.396;16.796;2023-10-08T12:13:47;102505.06;;;14.62;42.72
44044;BME280;29709;52.396;16.796;2023-10-08T12:17:02;102507.47;;;14.75;43.38
44044;BME280;29709;52.396;16.796;2023-10-08T12:20:24;102493.10;;;14.89;43.23
44044;BME280;29709;52.396;16.796;2023-10-08T12:23:41;102507.52;;;15.10;42.74
44044;BME280;29709;52.396;16.796;2023-10-08T12:27:03;102513.58;;;15.23;43.15
44044;BME280;29709;52.396;16.796;2023-10-08T12:30:17;102513.09;;;15.28;43.10
44044;BME280;29709;52.396;16.796;2023-10-08T12:33:30;102518.31;;;15.13;40.41
44044;BME280;29709;52.396;16.796;2023-10-08T12:36:44;102519.30;;;14.94;41.24
44044;BME280;29709;52.396;16.796;2023-10-08T12:40:00;102519.47;;;14.93;41.40
44044;BME280;29709;52.396;16.796;2023-10-08T12:43:25;102493.03;;;14.98;41.84
44044;BME280;29709;52.396;16.796;2023-10-08T12:46:44;102499.44;;;14.99;42.49
44044;BME280;29709;52.396;16.796;2023-10-08T12:50:01;102503.43;;;15.14;42.67
44044;BME280;29709;52.396;16.796;2023-10-08T12:53:21;102498.12;;;15.21;43.34
44044;BME280;29709;52.396;16.796;2023-10-08T12:56:40;102505.79;;;15.09;41.28
44044;BME280;29709;52.396;16.796;2023-10-08T13:00:01;102497.61;;;14.90;42.71
44044;BME280;29709;52.396;16.796;2023-10-08T13:03:17;102508.68;;;14.90;42.99
44044;BME280;29709;52.396;16.796;2023-10-08T13:06:36;102497.70;;;14.80;43.15
44044;BME280;29709;52.396;16.796;2023-10-08T13:09:57;102501.17;;;14.82;43.73
44044;BME280;29709;52.396;16.796;2023-10-08T13:13:12;102503.14;;;14.90;43.17
44044;BME280;29709;52.396;16.796;2023-10-08T13:16:28;102503.78;;;14.84;43.99
44044;BME280;29709;52.396;16.796;2023-10-08T13:19:44;102498.20;;;14.66;42.26
44044;BME280;29709;52.396;16.796;2023-10-08T13:23:02;102500.80;;;14.67;43.88
44044;BME280;29709;52.396;16.796;2023-10-08T13:26:17;102516.38;;;14.68;44.12
44044;BME280;29709;52.396;16.796;2023-10-08T13:29:31;102509.53;;;14.72;44.47
44044;BME280;29709;52.396;16.796;2023-10-08T13:32:45;102503.36;;;14.79;43.62
44044;BME280;29709;52.396;16.796;2023-10-08T13:35:59;102508.77;;;14.80;44.53
44044;BME280;29709;52.396;16.796;2023-10-08T13:39:13;102510.51;;;14.81;44.81
44044;BME280;29709;52.396;16.796;2023-10-08T13:42:31;102518.88;;;14.89;45.18
44044;BME280;29709;52.396;16.796;2023-10-08T13:45:45;102518.21;;;15.05;44.85
44044;BME280;29709;52.396;16.796;2023-10-08T13:49:00;102517.19;;;15.06;45.48
44044;BME280;29709;52.396;16.796;2023-10-08T13:52:14;102512.83;;;15.04;45.61
44044;BME280;29709;52.396;16.796;2023-10-08T13:55:29;102499.77;;;14.96;46.02
44044;BME280;29709;52.396;16.796;2023-10-08T13:58:43;102510.34;;;14.83;46.01
44044;BME280;29709;52.396;16.796;2023-10-08T14:02:02;102507.95;;;14.70;45.09
44044;BME280;29709;52.396;16.796;2023-10-08T14:05:25;102509.53;;;14.72;45.64
44044;BME280;29709;52.396;16.796;2023-10-08T14:08:39;102510.24;;;14.75;46.24
44044;BME280;29709;52.396;16.796;2023-10-08T14:11:57;102497.00;;;14.68;45.66
44044;BME280;29709;52.396;16.796;2023-10-08T14:15:10;102501.48;;;14.52;45.41
44044;BME280;29709;52.396;16.796;2023-10-08T14:18:32;102509.05;;;14.50;46.19
44044;BME280;29709;52.396;16.796;2023-10-08T14:21:53;102525.35;;;14.43;46.56
44044;BME280;29709;52.396;16.796;2023-10-08T14:25:17;102516.04;;;14.44;46.89
44044;BME280;29709;52.396;16.796;2023-10-08T14:28:37;102519.55;;;14.46;47.28
44044;BME280;29709;52.396;16.796;2023-10-08T14:32:00;102516.93;;;14.44;47.26
44044;BME280;29709;52.396;16.796;2023-10-08T14:35:14;102527.44;;;14.31;47.31
44044;BME280;29709;52.396;16.796;2023-10-08T14:38:39;102526.91;;;14.18;46.91
44044;BME280;29709;52.396;16.796;2023-10-08T14:42:04;102524.44;;;14.05;47.80
44044;BME280;29709;52.396;16.796;2023-10-08T14:45:30;102520.70;;;13.97;47.92
44044;BME280;29709;52.396;16.796;2023-10-08T14:48:48;102526.24;;;13.97;48.30
44044;BME280;29709;52.396;16.796;2023-10-08T14:52:03;102514.72;;;14.01;48.85
44044;BME280;29709;52.396;16.796;2023-10-08T14:55:18;102518.21;;;13.94;49.00
44044;BME280;29709;52.396;16.796;2023-10-08T14:58:34;102526.37;;;13.85;48.65
44044;BME280;29709;52.396;16.796;2023-10-08T15:01:48;102529.45;;;13.82;49.70
44044;BME280;29709;52.396;16.796;2023-10-08T15:05:08;102536.57;;;13.75;50.29
44044;BME280;29709;52.396;16.796;2023-10-08T15:08:24;102541.37;;;13.73;50.93
44044;BME280;29709;52.396;16.796;2023-10-08T15:11:40;102547.78;;;13.74;50.85
44044;BME280;29709;52.396;16.796;2023-10-08T15:14:54;102553.76;;;13.69;51.32
44044;BME280;29709;52.396;16.796;2023-10-08T15:18:07;102547.66;;;13.66;51.31
44044;BME280;29709;52.396;16.796;2023-10-08T15:21:24;102548.07;;;13.61;52.01
44044;BME280;29709;52.396;16.796;2023-10-08T15:24:38;102556.38;;;13.61;52.35
44044;BME280;29709;52.396;16.796;2023-10-08T15:27:53;102550.99;;;13.60;53.02
44044;BME280;29709;52.396;16.796;2023-10-08T15:31:06;102564.09;;;13.57;52.48
44044;BME280;29709;52.396;16.796;2023-10-08T15:34:21;102564.80;;;13.60;52.77
44044;BME280;29709;52.396;16.796;2023-10-08T15:37:37;102569.60;;;13.57;52.97
44044;BME280;29709;52.396;16.796;2023-10-08T15:40:53;102561.87;;;13.51;53.15
44044;BME280;29709;52.396;16.796;2023-10-08T15:44:08;102569.44;;;13.40;53.26
44044;BME280;29709;52.396;16.796;2023-10-08T15:47:21;102576.86;;;13.39;53.40
44044;BME280;29709;52.396;16.796;2023-10-08T15:50:35;102574.54;;;13.35;53.64
44044;BME280;29709;52.396;16.796;2023-10-08T15:53:49;102587.73;;;13.31;54.11
44044;BME280;29709;52.396;16.796;2023-10-08T15:57:04;102597.48;;;13.25;54.03
44044;BME280;29709;52.396;16.796;2023-10-08T16:00:17;102617.36;;;13.19;54.51
44044;BME280;29709;52.396;16.796;2023-10-08T16:03:31;102615.15;;;13.13;54.86
44044;BME280;29709;52.396;16.796;2023-10-08T16:06:44;102623.55;;;13.12;55.28
44044;BME280;29709;52.396;16.796;2023-10-08T16:09:58;102625.00;;;13.06;55.28
44044;BME280;29709;52.396;16.796;2023-10-08T16:13:11;102621.77;;;13.01;55.57
44044;BME280;29709;52.396;16.796;2023-10-08T16:16:27;102617.69;;;12.95;56.04
44044;BME280;29709;52.396;16.796;2023-10-08T16:19:40;102619.84;;;12.92;56.64
44044;BME280;29709;52.396;16.796;2023-10-08T16:22:54;102629.56;;;12.86;56.15
44044;BME280;29709;52.396;16.796;2023-10-08T16:26:09;102635.48;;;12.82;56.66
44044;BME280;29709;52.396;16.796;2023-10-08T16:29:22;102644.92;;;12.79;56.38
44044;BME280;29709;52.396;16.796;2023-10-08T16:32:36;102641.73;;;12.74;56.71
44044;BME280;29709;52.396;16.796;2023-10-08T16:35:49;102649.12;;;12.74;57.32
44044;BME280;29709;52.396;16.796;2023-10-08T16:39:06;102642.98;;;12.70;56.94
44044;BME280;29709;52.396;16.796;2023-10-08T16:42:30;102639.05;;;12.63;56.74
44044;BME280;29709;52.396;16.796;2023-10-08T16:45:45;102650.76;;;12.55;57.71
44044;BME280;29709;52.396;16.796;2023-10-08T16:48:58;102662.52;;;12.57;57.73
44044;BME280;29709;52.396;16.796;2023-10-08T16:52:12;102660.18;;;12.53;58.02
44044;BME280;29709;52.396;16.796;2023-10-08T16:55:26;102661.59;;;12.47;58.43
44044;BME280;29709;52.396;16.796;2023-10-08T16:58:40;102661.45;;;12.49;58.45
44044;BME280;29709;52.396;16.796;2023-10-08T17:01:53;102661.00;;;12.43;58.76
44044;BME280;29709;52.396;16.796;2023-10-08T17:05:08;102671.89;;;12.45;59.07
44044;BME280;29709;52.396;16.796;2023-10-08T17:08:21;102669.55;;;12.40;59.66
44044;BME280;29709;52.396;16.796;2023-10-08T17:11:35;102675.16;;;12.39;60.01
44044;BME280;29709;52.396;16.796;2023-10-08T17:14:50;102668.60;;;12.30;59.85